Time;durP1;ratioP1;P1;durP2;ratioP2;P2;SDS_P1;SDS_P2;PMS_P1;PMS_P2;Temp;Humidity;BMP_temperature;BMP_pressure;BME280_temperature;BME280_humidity;BME280_pressure;Samples;Min_cycle;Max_cycle;Signal;HPM_P1;HPM_P2
2023/06/28 00:01:36;;;;;;;6.90;1.90;;;;;;;13.90;64.90;99519.64;103233;1257;137805;-78
2023/06/28 00:04:08;;;;;;;6.30;2.00;;;;;;;13.88;65.01;99521.54;103320;1256;95139;-77
2023/06/28 00:06:55;;;;;;;9.10;2.10;;;;;;;13.84;65.24;99519.70;103179;1255;137456;-78
2023/06/28 00:09:41;;;;;;;;;;;;;;;13.79;65.31;99520.84;103332;1257;95076;-77
2023/06/28 00:12:10;;;;;;;8.10;2.10;;;;;;;13.75;65.43;99527.52;103277;1255;124559;-77
2023/06/28 00:14:37;;;;;;;7.00;2.20;;;;;;;13.72;65.62;99531.02;103328;1257;107719;-77
2023/06/28 00:17:04;;;;;;;5.20;1.90;;;;;;;13.70;65.63;99534.98;103335;1256;96739;-77
2023/06/28 00:19:32;;;;;;;5.10;2.10;;;;;;;13.68;65.82;99535.27;103234;1257;137513;-77
2023/06/28 00:21:59;;;;;;;4.90;1.90;;;;;;;13.66;65.85;99535.58;103292;1255;95595;-77
2023/06/28 00:24:27;;;;;;;9.90;2.50;;;;;;;13.62;65.97;99539.79;103309;1254;137806;-77
2023/06/28 00:26:54;;;;;;;5.30;2.30;;;;;;;13.59;65.92;99542.59;103318;1254;106557;-78
2023/06/28 00:29:21;;;;;;;5.00;1.90;;;;;;;13.55;66.12;99542.63;103356;1256;94979;-77
2023/06/28 00:31:49;;;;;;;3.80;1.80;;;;;;;13.52;66.27;99540.71;103097;1255;137483;-77
2023/06/28 00:34:16;;;;;;;7.60;2.30;;;;;;;13.49;66.40;99542.11;103183;1254;94997;-77
2023/06/28 00:36:47;;;;;;;3.40;2.10;;;;;;;13.47;66.32;99544.81;103131;1255;138827;-78
2023/06/28 00:39:14;;;;;;;6.10;2.20;;;;;;;13.44;66.45;99542.54;103173;1258;107596;-77
2023/06/28 00:41:41;;;;;;;4.10;2.40;;;;;;;13.42;66.48;99541.75;103118;1255;137797;-78
2023/06/28 00:44:08;;;;;;;6.70;2.10;;;;;;;13.40;66.56;99540.00;102532;1255;1002517;-77
2023/06/28 00:46:40;;;;;;;3.40;1.90;;;;;;;13.34;66.77;99535.41;103297;1254;95088;-78
2023/06/28 00:49:07;;;;;;;5.80;2.10;;;;;;;13.28;66.93;99538.89;103235;1255;137596;-77
2023/06/28 00:51:36;;;;;;;5.00;1.80;;;;;;;13.24;66.97;99536.13;103362;1254;107974;-78
2023/06/28 00:54:04;;;;;;;6.60;2.60;;;;;;;13.22;67.12;99541.14;103285;1258;138341;-77
2023/06/28 00:56:31;;;;;;;14.70;2.40;;;;;;;13.19;67.31;99538.66;103324;1256;108286;-78
2023/06/28 00:59:00;;;;;;;6.10;2.60;;;;;;;13.18;67.44;99542.05;103379;1256;95111;-78
2023/06/28 01:01:49;;;;;;;9.40;2.30;;;;;;;13.15;67.67;99545.31;103287;1256;137822;-79
2023/06/28 01:04:19;;;;;;;4.60;2.50;;;;;;;13.11;67.75;99543.60;103297;1260;107319;-78
2023/06/28 01:07:01;;;;;;;4.80;2.50;;;;;;;13.09;68.02;99538.12;103290;1256;137748;-78
2023/06/28 01:09:32;;;;;;;5.40;2.80;;;;;;;13.05;68.11;99534.83;103401;1254;107687;-78
2023/06/28 01:12:01;;;;;;;7.40;2.90;;;;;;;13.04;68.39;99540.52;103065;1259;138486;-78
2023/06/28 01:14:29;;;;;;;8.50;2.80;;;;;;;12.99;68.56;99542.17;103319;1258;106986;-77
2023/06/28 01:16:57;;;;;;;6.20;2.70;;;;;;;12.95;68.58;99542.19;103315;1254;106860;-76
2023/06/28 01:19:31;;;;;;;8.10;3.00;;;;;;;12.92;68.90;99541.98;103257;1256;137623;-77
2023/06/28 01:22:12;;;;;;;6.10;3.20;;;;;;;12.90;69.19;99537.23;103352;1258;107661;-77
2023/06/28 01:24:40;;;;;;;10.20;3.00;;;;;;;12.85;69.45;99533.66;103196;1254;137716;-77
2023/06/28 01:27:13;;;;;;;6.80;3.40;;;;;;;12.80;69.60;99535.52;103273;1258;108618;-77
2023/06/28 01:29:42;;;;;;;5.00;3.00;;;;;;;12.75;69.93;99531.91;103146;1254;137792;-77
2023/06/28 01:32:12;;;;;;;5.40;3.00;;;;;;;12.71;70.03;99534.55;103272;1258;96277;-77
2023/06/28 01:34:59;;;;;;;5.40;3.30;;;;;;;12.69;70.37;99534.48;103266;1258;107399;-77
2023/06/28 01:37:27;;;;;;;4.50;3.20;;;;;;;12.68;70.49;99532.11;103167;1258;137891;-77
2023/06/28 01:39:58;;;;;;;6.40;3.20;;;;;;;12.64;70.76;99528.11;103134;1258;109912;-76
2023/06/28 01:42:26;;;;;;;8.10;4.20;;;;;;;12.62;70.82;99526.83;103005;1258;137661;-77
2023/06/28 01:44:55;;;;;;;7.70;2.90;;;;;;;12.58;70.95;99526.33;103320;1255;95194;-76
2023/06/28 01:47:23;;;;;;;5.90;3.10;;;;;;;12.58;71.21;99526.19;103338;1258;108172;-76
2023/06/28 01:49:50;;;;;;;6.70;3.10;;;;;;;12.57;71.27;99527.98;103191;1257;137553;-77
2023/06/28 01:52:18;;;;;;;8.20;3.50;;;;;;;12.55;71.42;99527.02;103435;1257;108928;-76
2023/06/28 01:54:45;;;;;;;5.00;3.20;;;;;;;12.53;71.53;99527.45;103190;1254;138132;-76
2023/06/28 01:57:14;;;;;;;8.00;3.50;;;;;;;12.52;71.54;99527.52;103286;1258;95162;-76
2023/06/28 01:59:41;;;;;;;5.70;3.20;;;;;;;12.49;71.64;99521.21;103109;1254;137885;-76
2023/06/28 02:02:10;;;;;;;8.10;3.40;;;;;;;12.47;71.88;99524.82;103196;1254;95185;-76
2023/06/28 02:04:40;;;;;;;5.80;3.30;;;;;;;12.47;72.12;99521.36;103231;1254;107722;-76
2023/06/28 02:07:07;;;;;;;8.60;3.80;;;;;;;12.45;72.20;99524.56;103136;1258;137852;-77
2023/06/28 02:09:34;;;;;;;5.40;3.00;;;;;;;12.44;72.28;99520.80;103235;1254;95925;-77
2023/06/28 02:12:06;;;;;;;7.20;3.30;;;;;;;12.43;72.37;99521.20;103059;1257;137736;-77
2023/06/28 02:14:39;;;;;;;6.40;3.50;;;;;;;12.40;72.40;99520.66;103224;1260;95131;-78
2023/06/28 02:17:13;;;;;;;9.40;3.70;;;;;;;12.38;72.61;99516.73;103293;1254;107959;-78
2023/06/28 02:19:44;;;;;;;5.30;3.30;;;;;;;12.35;72.62;99513.02;103136;1259;138349;-76
2023/06/28 02:22:14;;;;;;;5.70;2.90;;;;;;;12.35;72.72;99519.33;103340;1254;95324;-77
2023/06/28 02:24:51;;;;;;;8.30;3.10;;;;;;;12.34;72.86;99520.44;103147;1255;137720;-77
2023/06/28 02:27:18;;;;;;;5.00;3.30;;;;;;;12.32;72.84;99518.46;103126;1257;95099;-76
2023/06/28 02:29:45;;;;;;;5.00;3.10;;;;;;;12.30;72.91;99516.77;103088;1255;138554;-77
2023/06/28 02:32:14;;;;;;;5.60;3.40;;;;;;;12.29;73.00;99516.50;103191;1261;106522;-77
2023/06/28 02:34:42;;;;;;;5.80;3.30;;;;;;;12.29;73.14;99518.77;103318;1255;95738;-77
2023/06/28 02:37:09;;;;;;;6.90;3.30;;;;;;;12.29;73.18;99518.41;103225;1258;137666;-77
2023/06/28 02:39:44;;;;;;;6.40;3.30;;;;;;;12.28;73.28;99513.05;103321;1257;95168;-77
2023/06/28 02:42:14;;;;;;;5.90;3.50;;;;;;;12.28;73.26;99509.41;103260;1257;137921;-77
2023/06/28 02:44:44;;;;;;;7.60;3.60;;;;;;;12.27;73.37;99513.63;103214;1254;107007;-77
2023/06/28 02:47:11;;;;;;;5.20;3.50;;;;;;;12.27;73.57;99516.07;103358;1255;95095;-77
2023/06/28 02:49:38;;;;;;;6.00;3.80;;;;;;;12.29;73.62;99517.52;103203;1254;137691;-77
2023/06/28 02:52:06;;;;;;;4.80;3.10;;;;;;;12.30;73.49;99517.50;103229;1258;94962;-77
2023/06/28 02:54:36;;;;;;;5.70;2.80;;;;;;;12.31;73.47;99516.44;103571;1258;137756;-77
2023/06/28 02:57:10;;;;;;;7.20;3.20;;;;;;;12.31;73.66;99522.01;103250;1254;107473;-77
2023/06/28 02:59:57;;;;;;;9.00;3.50;;;;;;;12.31;73.81;99521.97;103227;1259;137973;-76
2023/06/28 03:02:24;;;;;;;6.00;3.30;;;;;;;12.29;73.69;99524.34;103153;1257;107729;-76
2023/06/28 03:04:55;;;;;;;4.50;3.10;;;;;;;12.28;73.94;99531.21;103331;1254;95142;-76
2023/06/28 03:07:25;;;;;;;5.20;3.20;;;;;;;12.27;73.89;99529.70;103255;1257;137563;-75
2023/06/28 03:09:52;;;;;;;8.60;3.50;;;;;;;12.27;74.06;99525.15;103334;1258;107306;-76
2023/06/28 03:12:30;;;;;;;6.80;3.30;;;;;;;12.29;74.09;99523.98;103291;1256;138346;-76
2023/06/28 03:15:11;;;;;;;4.50;3.30;;;;;;;12.32;74.16;99517.94;103346;1254;108124;-75
2023/06/28 03:17:58;;;;;;;8.20;3.60;;;;;;;12.34;74.27;99513.12;103214;1258;138289;-75
2023/06/28 03:20:27;;;;;;;4.90;3.60;;;;;;;12.35;74.23;99516.52;103391;1254;108751;-75
2023/06/28 03:23:05;;;;;;;5.80;3.60;;;;;;;12.37;74.22;99514.34;103344;1254;108705;-76
2023/06/28 03:25:33;;;;;;;7.30;3.80;;;;;;;12.39;74.32;99514.42;102478;1254;1002564;-76
2023/06/28 03:28:00;;;;;;;5.20;3.80;;;;;;;12.43;74.36;99512.48;103218;1254;107299;-75
2023/06/28 03:30:31;;;;;;;4.80;3.60;;;;;;;12.46;74.51;99511.10;103137;1255;138013;-76
2023/06/28 03:32:59;;;;;;;8.90;4.00;;;;;;;12.49;74.41;99509.55;103153;1260;109823;-76
2023/06/28 03:35:27;;;;;;;6.10;3.60;;;;;;;12.51;74.25;99511.55;103260;1258;108077;-76
2023/06/28 03:37:58;;;;;;;7.50;3.70;;;;;;;12.54;74.41;99507.73;103420;1257;96422;-76
2023/06/28 03:40:25;;;;;;;10.00;4.50;;;;;;;12.57;74.42;99507.89;103231;1254;107618;-76
2023/06/28 03:42:55;;;;;;;7.00;4.40;;;;;;;12.61;74.48;99503.55;103206;1258;138242;-76
2023/06/28 03:45:34;;;;;;;7.30;3.50;;;;;;;12.66;74.56;99505.70;103367;1257;109902;-76
2023/06/28 03:48:07;;;;;;;6.90;3.90;;;;;;;12.70;74.54;99506.34;103170;1254;138571;-76
2023/06/28 03:50:45;;;;;;;4.50;3.60;;;;;;;12.76;74.32;99512.88;103276;1254;95368;-76
2023/06/28 03:53:12;;;;;;;9.10;4.20;;;;;;;12.80;74.35;99512.14;103287;1255;108074;-76
2023/06/28 03:55:39;;;;;;;5.80;3.40;;;;;;;12.85;74.38;99510.09;103233;1254;137994;-77
2023/06/28 03:58:09;;;;;;;6.40;3.80;;;;;;;12.91;74.38;99511.68;103340;1254;110230;-77
2023/06/28 04:00:36;;;;;;;5.30;3.60;;;;;;;12.99;74.29;99510.41;103245;1254;137923;-77
2023/06/28 04:03:15;;;;;;;6.40;3.60;;;;;;;13.05;74.25;99516.20;103320;1257;96426;-77
2023/06/28 04:05:46;;;;;;;7.40;3.80;;;;;;;13.11;74.14;99520.04;103069;1260;137904;-77
2023/06/28 04:08:26;;;;;;;6.70;3.60;;;;;;;13.18;74.03;99524.75;103257;1257;96423;-76
2023/06/28 04:10:54;;;;;;;4.50;3.40;;;;;;;13.28;73.89;99525.79;103338;1254;108694;-76
2023/06/28 04:13:22;;;;;;;7.00;3.40;;;;;;;13.38;73.77;99522.64;103167;1254;138133;-76
2023/06/28 04:15:49;;;;;;;6.90;3.70;;;;;;;13.45;73.74;99524.32;103317;1254;96362;-76
2023/06/28 04:18:16;;;;;;;5.90;3.30;;;;;;;13.56;73.60;99522.50;103196;1254;137961;-77
2023/06/28 04:20:45;;;;;;;8.00;3.70;;;;;;;13.65;73.34;99520.42;103318;1254;96421;-77
2023/06/28 04:23:16;;;;;;;4.90;3.40;;;;;;;13.73;73.20;99514.90;103324;1254;108936;-76
2023/06/28 04:25:44;;;;;;;3.90;3.00;;;;;;;13.80;72.95;99513.96;103089;1254;138181;-78
2023/06/28 04:28:11;;;;;;;5.00;3.40;;;;;;;13.85;72.81;99516.14;103280;1257;96565;-78
2023/06/28 04:30:38;;;;;;;5.70;3.30;;;;;;;13.90;72.72;99516.00;103153;1257;137858;-78
2023/06/28 04:33:07;;;;;;;7.80;3.40;;;;;;;13.95;72.41;99522.36;103339;1257;96330;-77
2023/06/28 04:35:37;;;;;;;8.20;3.50;;;;;;;13.98;72.41;99521.13;103220;1254;137989;-76
2023/06/28 04:38:04;;;;;;;6.30;3.00;;;;;;;14.04;72.34;99525.36;103318;1257;108042;-77
2023/06/28 04:40:33;;;;;;;5.20;3.30;;;;;;;14.11;72.25;99531.22;103445;1254;96307;-77
2023/06/28 04:43:00;;;;;;;6.30;3.20;;;;;;;14.18;72.05;99532.73;103254;1254;137761;-76
2023/06/28 04:45:36;;;;;;;5.70;3.40;;;;;;;14.27;71.93;99538.33;103340;1257;96307;-76
2023/06/28 04:48:07;;;;;;;3.90;3.00;;;;;;;14.38;71.69;99538.06;103161;1254;137997;-77
2023/06/28 04:50:39;;;;;;;3.50;2.90;;;;;;;14.52;71.53;99532.17;103193;1254;107900;-77
2023/06/28 04:53:07;;;;;;;5.70;2.90;;;;;;;14.67;71.40;99535.65;103321;1257;97409;-76
2023/06/28 04:55:34;;;;;;;8.40;3.80;;;;;;;14.85;71.07;99532.80;103136;1254;137888;-78
2023/06/28 04:58:03;;;;;;;5.10;3.10;;;;;;;14.94;70.49;99533.27;104545;1253;94548;-77
2023/06/28 05:00:31;;;;;;;6.80;3.10;;;;;;;15.04;70.22;99531.05;103243;1254;137735;-82
2023/06/28 05:02:59;;;;;;;6.40;2.90;;;;;;;15.14;70.13;99528.20;103296;1254;107098;-79
2023/06/28 05:05:30;;;;;;;5.30;2.80;;;;;;;15.24;69.86;99527.73;103271;1254;96822;-81
2023/06/28 05:07:59;;;;;;;8.90;3.00;;;;;;;15.38;69.69;99532.30;103226;1254;107303;-79
2023/06/28 05:10:27;;;;;;;5.70;2.70;;;;;;;15.50;69.28;99530.13;103254;1254;96286;-79
2023/06/28 05:12:54;;;;;;;5.80;2.20;;;;;;;15.68;68.86;99530.40;103145;1254;137851;-78
2023/06/28 05:15:22;;;;;;;4.70;2.70;;;;;;;15.96;68.68;99528.95;103249;1257;108846;-78
2023/06/28 05:17:49;;;;;;;5.30;2.80;;;;;;;16.30;68.03;99529.98;103196;1254;138098;-79
2023/06/28 05:20:16;;;;;;;4.80;2.60;;;;;;;16.56;67.28;99526.79;103263;1257;108014;-78
2023/06/28 05:22:49;;;;;;;3.10;2.50;;;;;;;16.74;66.47;99524.51;103343;1254;96473;-77
2023/06/28 05:25:17;;;;;;;3.10;2.40;;;;;;;16.88;65.70;99523.42;103234;1254;137827;-77
2023/06/28 05:27:45;;;;;;;4.80;2.80;;;;;;;16.89;65.21;99522.83;103147;1257;107770;-78
2023/06/28 05:30:12;;;;;;;6.50;2.80;;;;;;;17.00;65.20;99520.48;103223;1254;138108;-77
2023/06/28 05:32:40;;;;;;;4.70;2.30;;;;;;;17.14;64.78;99515.77;103253;1257;108194;-80
2023/06/28 05:35:08;;;;;;;3.10;2.00;;;;;;;17.33;64.46;99517.09;103258;1267;96480;-80
2023/06/28 05:37:40;;;;;;;5.90;2.40;;;;;;;17.54;63.93;99517.29;103203;1254;137730;-79
2023/06/28 05:40:11;;;;;;;5.50;2.40;;;;;;;17.66;63.63;99516.41;103277;1254;107829;-82
2023/06/28 05:42:38;;;;;;;4.00;2.10;;;;;;;17.80;63.08;99509.97;103558;1257;137938;-84
2023/06/28 05:45:07;;;;;;;5.60;2.20;;;;;;;17.91;62.61;99507.17;103266;1252;107692;-78
2023/06/28 05:47:35;;;;;;;8.50;2.60;;;;;;;18.02;62.24;99499.86;103208;1257;96475;-81
2023/06/28 05:50:02;;;;;;;4.60;2.40;;;;;;;18.14;61.93;99505.69;103183;1254;109957;-81
2023/06/28 05:52:30;;;;;;;5.00;2.30;;;;;;;18.28;61.71;99501.11;103235;1257;107068;-82
2023/06/28 05:54:57;;;;;;;4.30;2.20;;;;;;;18.38;60.85;99495.58;103239;1254;137296;-81
2023/06/28 05:57:24;;;;;;;5.50;1.80;;;;;;;18.52;60.61;99497.88;103329;1254;107628;-80
2023/06/28 05:59:52;;;;;;;4.80;2.10;;;;;;;18.75;60.31;99497.45;103216;1257;137399;-81
2023/06/28 06:02:19;;;;;;;4.00;2.10;;;;;;;19.27;59.86;99496.18;103289;1257;109909;-81
2023/06/28 06:04:47;;;;;;;5.00;1.70;;;;;;;20.26;58.67;99493.19;103260;1254;107409;-83
2023/06/28 06:07:14;;;;;;;3.20;1.80;;;;;;;21.80;56.68;99488.92;103143;1254;137304;-82
2023/06/28 06:09:41;;;;;;;4.20;1.90;;;;;;;23.48;54.09;99482.26;103161;1254;107712;-78
2023/06/28 06:12:11;;;;;;;5.40;2.00;;;;;;;25.07;51.67;99476.60;103106;1258;137390;-80
2023/06/28 06:14:38;;;;;;;3.10;1.50;;;;;;;26.53;48.33;99470.81;103358;1254;109747;-83
2023/06/28 06:17:06;;;;;;;5.50;1.70;;;;;;;27.83;46.54;99474.25;103142;1254;107708;-82
2023/06/28 06:19:33;;;;;;;5.70;1.60;;;;;;;29.07;44.14;99471.28;103000;1254;137221;-83
2023/06/28 06:22:00;;;;;;;4.60;1.70;;;;;;;30.05;41.67;99469.63;103204;1254;107268;-82
2023/06/28 06:24:27;;;;;;;5.50;1.60;;;;;;;30.71;39.31;99468.92;103124;1258;137232;-83
2023/06/28 06:26:54;;;;;;;4.80;1.70;;;;;;;31.34;38.18;99465.42;103318;1253;110479;-81
2023/06/28 06:29:21;;;;;;;4.20;1.80;;;;;;;31.82;37.22;99463.08;103169;1257;106535;-81
2023/06/28 06:31:49;;;;;;;4.50;1.70;;;;;;;31.69;36.09;99459.11;103069;1257;137259;-80
2023/06/28 06:34:16;;;;;;;3.20;1.70;;;;;;;31.19;35.86;99456.59;103255;1254;107125;-82
2023/06/28 06:36:43;;;;;;;5.00;1.40;;;;;;;30.34;36.28;99457.55;103202;1254;138956;-80
2023/06/28 06:39:11;;;;;;;5.50;1.70;;;;;;;29.46;36.21;99464.38;103278;1254;109259;-80
2023/06/28 06:41:38;;;;;;;4.00;1.60;;;;;;;29.23;36.74;99463.20;103272;1257;106936;-81
2023/06/28 06:44:09;;;;;;;3.70;1.70;;;;;;;30.13;36.45;99456.30;103340;1254;96686;-81
2023/06/28 06:46:37;;;;;;;3.40;1.30;;;;;;;30.74;35.40;99456.36;103265;1255;108132;-80
2023/06/28 06:49:04;;;;;;;4.30;1.50;;;;;;;30.78;34.95;99455.30;103133;1257;137922;-81
2023/06/28 06:51:32;;;;;;;2.40;1.50;;;;;;;31.07;34.48;99455.53;103335;1254;109897;-80
2023/06/28 06:53:59;;;;;;;3.40;1.50;;;;;;;31.92;34.03;99455.00;103146;1258;137422;-80
2023/06/28 06:56:27;;;;;;;6.00;1.20;;;;;;;32.87;32.13;99452.41;103419;1253;96523;-80
2023/06/28 06:58:54;;;;;;;3.50;1.60;;;;;;;33.55;31.78;99457.04;103298;1254;101130;-79
2023/06/28 07:01:21;;;;;;;4.90;1.80;;;;;;;34.31;30.67;99454.43;103861;1253;137196;-80
2023/06/28 07:03:50;;;;;;;5.20;1.50;;;;;;;34.56;30.15;99456.84;103329;1253;102516;-79
2023/06/28 07:06:17;;;;;;;4.60;1.70;;;;;;;34.93;29.70;99455.15;103449;1253;138381;-75
2023/06/28 07:08:45;;;;;;;6.60;1.50;;;;;;;35.44;28.84;99455.48;103367;1256;96424;-79
2023/06/28 07:11:12;;;;;;;3.90;1.40;;;;;;;35.84;28.03;99456.17;103365;1256;99082;-78
2023/06/28 07:13:39;;;;;;;4.80;1.60;;;;;;;36.13;27.73;99451.80;103188;1257;137070;-79
2023/06/28 07:16:07;;;;;;;6.10;1.80;;;;;;;36.39;27.33;99450.77;103304;1257;101369;-79
2023/06/28 07:18:34;;;;;;;5.20;1.70;;;;;;;36.03;27.00;99459.09;103082;1257;137212;-79
2023/06/28 07:21:02;;;;;;;4.00;1.40;;;;;;;35.96;26.99;99459.58;103416;1254;96412;-80
2023/06/28 07:23:29;;;;;;;2.80;1.60;;;;;;;36.28;26.86;99452.11;103343;1253;100391;-80
2023/06/28 07:25:56;;;;;;;4.30;1.60;;;;;;;36.80;26.39;99452.18;103241;1257;137028;-80
2023/06/28 07:28:23;;;;;;;4.30;1.80;;;;;;;37.18;25.66;99457.49;103197;1254;102381;-80
2023/06/28 07:30:55;;;;;;;3.40;1.30;;;;;;;37.27;25.35;99461.05;103108;1257;137814;-80
2023/06/28 07:33:23;;;;;;;4.80;1.40;;;;;;;37.26;25.08;99462.33;103323;1253;96466;-81
2023/06/28 07:35:50;;;;;;;5.30;1.60;;;;;;;37.35;24.78;99461.64;103738;1253;137719;-80
2023/06/28 07:38:20;;;;;;;3.60;1.30;;;;;;;37.50;24.53;99461.77;103249;1254;96471;-80
2023/06/28 07:40:47;;;;;;;5.20;1.70;;;;;;;37.64;24.38;99458.39;103392;1254;102589;-80
2023/06/28 07:43:16;;;;;;;7.00;1.70;;;;;;;37.80;24.00;99453.30;103108;1254;137270;-80
2023/06/28 07:45:43;;;;;;;4.90;1.20;;;;;;;37.79;24.22;99455.14;103361;1257;96455;-81
2023/06/28 07:48:11;;;;;;;4.70;1.70;;;;;;;37.95;24.22;99454.27;103228;1257;137230;-80
2023/06/28 07:50:39;;;;;;;8.30;1.50;;;;;;;38.07;23.74;99455.73;103253;1259;96484;-81
2023/06/28 07:53:06;;;;;;;3.60;1.40;;;;;;;38.16;23.50;99451.52;103287;1253;102403;-81
2023/06/28 07:55:33;;;;;;;3.50;1.50;;;;;;;37.99;22.94;99450.70;103083;1257;137235;-80
2023/06/28 07:58:01;;;;;;;3.60;1.50;;;;;;;37.36;22.99;99450.72;103346;1256;96546;-80
2023/06/28 08:00:30;;;;;;;4.40;1.60;;;;;;;36.53;23.57;99446.45;103181;1254;137217;-80
2023/06/28 08:02:58;;;;;;;5.50;2.00;;;;;;;36.14;24.17;99447.40;103281;1257;96905;-79
2023/06/28 08:05:26;;;;;;;7.00;1.90;;;;;;;36.08;24.10;99450.75;103443;1253;101379;-80
2023/06/28 08:07:55;;;;;;;4.90;1.60;;;;;;;36.09;24.35;99444.10;103108;1253;137242;-80
2023/06/28 08:10:22;;;;;;;4.90;1.60;;;;;;;36.13;24.20;99441.91;103230;1257;96453;-79
2023/06/28 08:12:55;;;;;;;5.90;1.70;;;;;;;36.06;24.10;99444.23;103182;1257;137074;-80
2023/06/28 08:15:22;;;;;;;5.50;1.80;;;;;;;36.08;23.88;99446.96;103281;1253;96511;-81
2023/06/28 08:17:49;;;;;;;4.60;1.30;;;;;;;35.42;23.74;99447.30;103154;1253;137214;-80
2023/06/28 08:20:16;;;;;;;5.50;1.60;;;;;;;33.91;24.32;99448.11;103277;1256;100678;-80
2023/06/28 08:22:43;;;;;;;4.60;1.60;;;;;;;32.62;25.31;99447.25;103321;1253;96471;-81
2023/06/28 08:25:11;;;;;;;8.10;1.80;;;;;;;31.92;26.14;99450.65;103105;1254;137294;-81
2023/06/28 08:27:38;;;;;;;5.70;1.50;;;;;;;31.10;26.93;99447.64;103287;1254;96526;-81
2023/06/28 08:30:07;;;;;;;9.80;2.00;;;;;;;30.17;27.85;99443.88;103151;1253;137263;-81
2023/06/28 08:32:35;;;;;;;8.00;2.00;;;;;;;29.28;28.95;99449.67;103387;1253;106830;-79
2023/06/28 08:35:04;;;;;;;6.90;1.80;;;;;;;28.35;29.64;99441.11;103307;1253;96430;-80
2023/06/28 08:37:34;;;;;;;7.50;1.50;;;;;;;27.37;30.88;99449.20;103106;1254;137406;-79
2023/06/28 08:40:01;;;;;;;5.30;1.90;;;;;;;26.59;31.86;99453.80;103129;1254;96430;-80
2023/06/28 08:42:30;;;;;;;7.00;1.90;;;;;;;25.82;32.63;99455.30;103159;1254;137071;-80
2023/06/28 08:44:59;;;;;;;4.90;1.70;;;;;;;25.10;33.59;99458.70;103258;1254;107989;-80
2023/06/28 08:47:28;;;;;;;7.60;1.50;;;;;;;24.50;34.64;99453.73;103244;1253;96464;-80
2023/06/28 08:49:56;;;;;;;4.90;1.30;;;;;;;24.08;35.60;99459.65;103232;1254;137022;-81
2023/06/28 08:52:26;;;;;;;7.00;1.60;;;;;;;24.63;35.98;99462.39;103187;1257;96531;-81
2023/06/28 08:54:53;;;;;;;6.10;1.80;;;;;;;25.35;35.28;99452.38;103402;1254;137245;-81
2023/06/28 08:57:22;;;;;;;4.90;1.70;;;;;;;25.96;34.80;99439.34;103290;1255;107053;-80
2023/06/28 08:59:49;;;;;;;6.00;1.60;;;;;;;26.68;34.23;99441.76;103076;1257;138106;-82
2023/06/28 09:02:18;;;;;;;8.50;1.90;;;;;;;26.65;33.35;99440.82;103168;1254;105758;-81
2023/06/28 09:04:48;;;;;;;5.90;1.50;;;;;;;26.16;33.61;99436.33;103302;1254;96481;-81
2023/06/28 09:07:18;;;;;;;6.10;1.60;;;;;;;25.55;34.31;99442.19;103194;1254;138827;-81
2023/06/28 09:09:49;;;;;;;6.40;1.70;;;;;;;24.86;34.80;99447.69;103284;1254;106871;-80
2023/06/28 09:12:17;;;;;;;7.40;1.60;;;;;;;24.36;35.78;99445.64;103143;1253;137421;-80
2023/06/28 09:14:44;;;;;;;5.40;1.60;;;;;;;23.93;36.20;99445.30;103268;1254;107471;-80
2023/06/28 09:17:11;;;;;;;4.60;1.80;;;;;;;23.57;36.54;99442.23;103124;1257;96426;-80
2023/06/28 09:19:39;;;;;;;4.10;1.60;;;;;;;23.32;36.88;99436.86;103151;1254;138574;-79
2023/06/28 09:22:08;;;;;;;5.90;1.50;;;;;;;23.75;37.40;99432.98;103201;1257;107582;-78
2023/06/28 09:24:37;;;;;;;5.00;1.40;;;;;;;24.23;37.17;99429.31;103236;1254;137269;-79
2023/06/28 09:27:06;;;;;;;6.70;1.50;;;;;;;24.59;36.72;99424.41;103286;1254;106863;-79
2023/06/28 09:29:34;;;;;;;4.20;1.20;;;;;;;25.39;36.11;99422.75;103773;1252;95801;-80
2023/06/28 09:32:01;;;;;;;10.00;1.70;;;;;;;25.90;35.04;99417.47;103207;1254;109780;-79
2023/06/28 09:34:29;;;;;;;6.40;1.80;;;;;;;26.04;34.67;99421.20;103184;1257;107130;-79
2023/06/28 09:36:57;;;;;;;7.00;1.50;;;;;;;26.08;34.64;99420.13;103039;1254;137290;-79
2023/06/28 09:39:25;;;;;;;5.70;1.30;;;;;;;25.78;34.42;99427.73;103193;1257;107636;-79
2023/06/28 09:41:54;;;;;;;5.00;1.50;;;;;;;25.33;34.59;99437.40;103048;1258;137542;-79
2023/06/28 09:44:29;;;;;;;7.40;1.80;;;;;;;24.98;34.82;99432.27;103284;1253;110745;-81
2023/06/28 09:47:02;;;;;;;5.70;1.50;;;;;;;24.65;35.19;99436.94;103283;1254;107183;-79
2023/06/28 09:49:30;;;;;;;8.60;1.70;;;;;;;24.35;35.60;99432.23;103122;1257;137296;-79
2023/06/28 09:52:03;;;;;;;4.70;1.60;;;;;;;24.33;36.02;99435.45;103209;1257;108199;-78
2023/06/28 09:54:32;;;;;;;4.90;1.30;;;;;;;24.90;36.12;99435.70;103210;1254;137439;-66
2023/06/28 09:57:01;;;;;;;4.20;1.50;;;;;;;25.16;35.60;99436.17;103446;1255;110814;-66
2023/06/28 09:59:32;;;;;;;6.30;1.70;;;;;;;25.07;35.75;99429.89;103351;1254;107708;-67
2023/06/28 10:02:08;;;;;;;7.60;1.70;;;;;;;24.76;36.20;99432.90;103321;1254;96453;-66
2023/06/28 10:04:37;;;;;;;6.10;1.40;;;;;;;24.39;36.46;99422.10;104469;1255;108815;-66
2023/06/28 10:07:07;;;;;;;7.80;1.70;;;;;;;23.94;36.91;99436.17;103233;1257;137522;-66
2023/06/28 10:09:39;;;;;;;4.40;1.60;;;;;;;23.56;37.30;99434.52;104639;1254;109986;-67
2023/06/28 10:12:10;;;;;;;5.40;2.20;;;;;;;23.22;37.89;99441.95;103508;1254;138451;-67
2023/06/28 10:14:41;;;;;;;4.80;1.50;;;;;;;23.04;38.23;99435.30;103572;1257;96326;-67
2023/06/28 10:17:09;;;;;;;6.20;1.70;;;;;;;22.91;38.57;99437.63;103347;1254;106919;-67
2023/06/28 10:19:38;;;;;;;7.30;2.20;;;;;;;22.91;38.82;99435.36;103245;1254;137369;-67
2023/06/28 10:22:07;;;;;;;5.10;1.40;;;;;;;23.06;39.04;99434.98;103362;1254;109804;-66
2023/06/28 10:24:36;;;;;;;5.50;1.40;;;;;;;23.24;38.97;99436.61;103585;1255;138071;-66
2023/06/28 10:27:05;;;;;;;4.10;1.50;;;;;;;23.30;38.81;99439.33;103542;1254;96544;-67
2023/06/28 10:29:34;;;;;;;11.20;1.90;;;;;;;23.37;38.61;99436.59;103546;1254;107320;-68
2023/06/28 10:32:02;;;;;;;5.30;2.10;;;;;;;23.42;38.35;99431.02;103292;1254;96436;-67
2023/06/28 10:34:33;;;;;;;7.80;1.70;;;;;;;23.36;38.40;99433.62;103435;1254;109561;-66
2023/06/28 10:37:00;;;;;;;5.80;1.60;;;;;;;23.59;38.62;99432.20;103276;1254;137275;-67
2023/06/28 10:39:28;;;;;;;8.30;1.90;;;;;;;24.01;38.28;99428.05;103360;1256;96464;-66
2023/06/28 10:41:58;;;;;;;4.00;1.60;;;;;;;24.10;37.91;99429.52;103361;1254;137887;-67
2023/06/28 10:44:26;;;;;;;6.40;1.60;;;;;;;24.11;38.04;99429.16;103628;1254;96451;-67
2023/06/28 10:47:10;;;;;;;5.60;1.90;;;;;;;24.11;38.02;99433.02;103344;1254;110998;-67
2023/06/28 10:49:40;;;;;;;7.00;1.60;;;;;;;23.88;37.89;99436.83;103229;1257;137272;-67
2023/06/28 10:52:14;;;;;;;6.10;1.40;;;;;;;23.64;38.08;99437.75;103383;1254;96546;-67
2023/06/28 10:54:42;;;;;;;3.70;1.40;;;;;;;23.46;38.20;99433.15;103784;1254;137141;-68
2023/06/28 10:57:14;;;;;;;5.30;1.50;;;;;;;23.47;38.74;99433.64;103404;1254;96451;-68
2023/06/28 10:59:42;;;;;;;9.00;2.00;;;;;;;23.90;38.80;99427.69;104632;1254;137141;-68
2023/06/28 11:02:09;;;;;;;5.00;1.60;;;;;;;24.22;38.46;99429.43;104549;1256;107772;-66
2023/06/28 11:04:51;;;;;;;5.90;1.60;;;;;;;24.20;38.27;99426.65;103450;1254;96524;-67
2023/06/28 11:07:23;;;;;;;7.30;2.00;;;;;;;24.00;38.37;99424.02;104165;1254;137151;-68
2023/06/28 11:10:14;;;;;;;5.90;1.80;;;;;;;23.82;38.66;99429.77;103736;1254;96542;-67
2023/06/28 11:12:42;;;;;;;16.10;2.70;;;;;;;23.93;39.10;99422.25;103549;1254;137154;-66
2023/06/28 11:15:14;;;;;;;9.20;2.10;;;;;;;24.24;38.93;99425.00;103296;1254;107907;-67
2023/06/28 11:17:42;;;;;;;54.80;5.30;;;;;;;24.31;38.55;99421.96;103258;1254;137547;-69
2023/06/28 11:20:11;;;;;;;11.50;1.90;;;;;;;24.25;38.97;99430.92;103287;1254;108676;-68
2023/06/28 11:22:53;;;;;;;7.40;1.90;;;;;;;24.12;38.80;99430.29;103365;1254;96537;-67
2023/06/28 11:25:28;;;;;;;5.90;1.70;;;;;;;23.86;38.70;99440.85;102953;1257;215105;-67
2023/06/28 11:27:58;;;;;;;7.80;1.60;;;;;;;23.52;38.69;99444.33;103184;1254;110500;-67
2023/06/28 11:30:50;;;;;;;4.40;1.50;;;;;;;23.24;38.92;99453.73;103151;1254;137214;-67